createdAt,value
2022-07-26T00:03:58.020Z,2.07
2022-07-26T00:08:59.716Z,1.77
2022-07-26T00:14:03.649Z,1.90
2022-07-26T00:19:08.074Z,1.73
2022-07-26T00:24:10.235Z,2.07
2022-07-26T00:29:12.238Z,1.73
2022-07-26T00:34:14.000Z,2.10
2022-07-26T00:39:15.772Z,1.60
2022-07-26T00:44:17.577Z,2.67
2022-07-26T00:49:19.421Z,1.93
2022-07-26T00:54:21.200Z,2.23
2022-07-26T00:59:23.050Z,1.27
2022-07-26T01:04:24.919Z,2.30
2022-07-26T01:09:27.140Z,2.03
2022-07-26T01:14:28.909Z,2.17
2022-07-26T01:19:30.725Z,2.70
2022-07-26T01:24:32.404Z,2.10
2022-07-26T01:29:36.161Z,2.80
2022-07-26T01:34:38.208Z,2.50
2022-07-26T01:39:40.011Z,2.33
2022-07-26T01:44:41.836Z,2.27
2022-07-26T01:49:43.513Z,2.10
2022-07-26T01:54:45.407Z,1.90
2022-07-26T01:59:47.203Z,2.73
2022-07-26T02:05:01.769Z,1.80
2022-07-26T02:10:04.006Z,1.67
2022-07-26T02:15:08.110Z,2.20
2022-07-26T02:20:10.279Z,2.07
2022-07-26T02:25:12.187Z,1.87
2022-07-26T02:30:13.989Z,1.67
2022-07-26T02:35:15.729Z,1.50
2022-07-26T02:40:19.489Z,1.70
2022-07-26T02:45:21.539Z,1.90
2022-07-26T02:50:25.728Z,2.30
2022-07-26T02:55:27.627Z,1.77
2022-07-26T03:00:29.348Z,1.77
2022-07-26T03:05:31.034Z,2.87
2022-07-26T03:10:33.014Z,1.67
2022-07-26T03:15:34.878Z,2.33
2022-07-26T03:20:36.765Z,1.80
2022-07-26T03:25:38.469Z,1.53
2022-07-26T03:30:40.255Z,2.30
2022-07-26T03:35:41.973Z,1.97
2022-07-26T03:40:43.816Z,2.40
2022-07-26T03:45:45.780Z,2.10
2022-07-26T03:50:47.483Z,2.23
2022-07-26T03:56:07.681Z,2.07
2022-07-26T04:01:09.441Z,2.33
2022-07-26T04:06:11.302Z,2.60
2022-07-26T04:11:13.083Z,2.47
2022-07-26T04:16:14.857Z,2.10
2022-07-26T04:21:16.741Z,2.33
2022-07-26T04:26:19.585Z,2.13
2022-07-26T04:31:21.512Z,3.03
2022-07-26T04:36:23.254Z,3.07
2022-07-26T04:41:25.068Z,2.13
2022-07-26T04:46:26.898Z,4.23
2022-07-26T04:51:28.819Z,3.10
2022-07-26T04:56:30.835Z,3.27
2022-07-26T05:01:32.854Z,3.13
2022-07-26T05:06:34.808Z,3.37
2022-07-26T05:11:36.914Z,3.07
2022-07-26T05:16:39.245Z,2.60
2022-07-26T05:21:46.404Z,2.93
2022-07-26T05:26:48.206Z,4.90
2022-07-26T05:31:50.403Z,4.43
2022-07-26T05:36:52.123Z,4.23
2022-07-26T05:41:53.797Z,4.70
2022-07-26T05:46:55.749Z,3.87
2022-07-26T05:52:01.160Z,4.47
2022-07-26T05:57:03.729Z,5.07
2022-07-26T06:02:07.792Z,4.80
2022-07-26T06:07:09.601Z,5.00
2022-07-26T06:12:11.401Z,5.17
2022-07-26T06:17:13.179Z,3.70
2022-07-26T06:22:15.040Z,4.20
2022-07-26T06:27:16.762Z,4.23
2022-07-26T06:32:18.510Z,4.17
2022-07-26T06:37:20.277Z,4.53
2022-07-26T06:42:21.996Z,3.00
2022-07-26T06:47:23.732Z,3.27
2022-07-26T06:52:25.769Z,4.90
2022-07-26T06:57:27.883Z,2.50
2022-07-26T07:02:29.707Z,3.27
2022-07-26T07:07:31.417Z,3.20
2022-07-26T07:25:07.042Z,4.03
2022-07-26T07:30:10.878Z,6.37
2022-07-26T07:35:13.164Z,6.57
2022-07-26T07:40:15.326Z,5.00
2022-07-26T07:45:17.845Z,8.17
2022-07-26T07:50:19.798Z,5.00
2022-07-26T08:01:40.225Z,4.70
2022-07-26T08:06:42.755Z,5.73
2022-07-26T08:11:52.167Z,6.03
2022-07-26T08:16:54.039Z,5.57
2022-07-26T08:21:55.794Z,5.57
2022-07-26T08:26:59.014Z,5.57
2022-07-26T08:32:00.760Z,5.03
2022-07-26T08:37:18.322Z,4.97
2022-07-26T08:42:23.162Z,5.23
2022-07-26T08:47:37.567Z,5.87
2022-07-26T08:52:42.763Z,5.77
2022-07-26T08:57:44.867Z,4.03
2022-07-26T09:02:47.100Z,4.40
2022-07-26T09:07:48.990Z,3.83
2022-07-26T09:12:55.572Z,4.67
2022-07-26T09:17:58.281Z,9.80
2022-07-26T09:23:07.499Z,4.10
2022-07-26T09:28:23.627Z,2.30
2022-07-26T09:33:25.459Z,1.57
2022-07-26T09:38:43.260Z,2.27
2022-07-26T09:43:46.450Z,2.67
2022-07-26T09:49:09.806Z,1.77
2022-07-26T09:54:13.549Z,2.50
2022-07-26T09:59:19.781Z,3.23
2022-07-26T10:04:21.865Z,3.17
2022-07-26T10:09:23.926Z,2.80
2022-07-26T10:14:36.332Z,3.03
2022-07-26T10:19:41.740Z,3.17
2022-07-26T10:24:47.445Z,2.33
2022-07-26T10:29:49.194Z,2.37
2022-07-26T10:34:50.935Z,2.80
2022-07-26T10:40:16.261Z,2.37
2022-07-26T10:45:21.507Z,2.10
2022-07-26T10:50:33.538Z,2.63
2022-07-26T10:55:55.585Z,2.30
2022-07-26T11:01:02.459Z,2.33
2022-07-26T11:06:14.527Z,1.73
2022-07-26T11:11:31.506Z,1.50
2022-07-26T11:16:59.356Z,1.10
2022-07-26T11:22:01.388Z,1.43
2022-07-26T11:27:04.645Z,1.20
2022-07-26T11:32:17.785Z,1.10
2022-07-26T11:37:20.178Z,1.00
2022-07-26T11:42:22.275Z,1.00
2022-07-26T11:47:26.312Z,1.47
2022-07-26T11:52:32.182Z,1.97
2022-07-26T11:57:34.257Z,2.30
2022-07-26T12:02:38.394Z,2.70
2022-07-26T12:07:40.165Z,3.47
2022-07-26T12:12:41.892Z,1.80
2022-07-26T12:17:59.803Z,1.40
2022-07-26T12:23:05.875Z,1.20
2022-07-26T12:28:07.667Z,1.17
2022-07-26T12:33:09.374Z,1.13
2022-07-26T12:38:11.174Z,1.20
2022-07-26T12:43:12.903Z,1.10
2022-07-26T12:48:14.638Z,1.07
2022-07-26T12:53:16.377Z,1.73
2022-07-26T12:58:18.071Z,2.00
2022-07-26T13:03:21.986Z,1.77
2022-07-26T13:08:23.724Z,2.40
2022-07-26T13:13:25.430Z,1.50
2022-07-26T13:18:27.173Z,1.20
2022-07-26T13:23:29.049Z,1.07
2022-07-26T13:28:31.654Z,1.60
2022-07-26T13:33:33.666Z,1.40
2022-07-26T13:38:35.575Z,1.67
2022-07-26T13:43:37.317Z,1.63
2022-07-26T13:48:48.049Z,1.07
2022-07-26T13:54:01.020Z,1.80
2022-07-26T13:59:02.712Z,1.53
2022-07-26T14:04:05.888Z,1.73
2022-07-26T14:09:10.927Z,1.30
2022-07-26T14:14:13.553Z,1.30
2022-07-26T14:19:15.807Z,1.67
2022-07-26T14:24:20.836Z,2.07
2022-07-26T14:29:22.740Z,2.03
2022-07-26T14:34:24.516Z,1.67
2022-07-26T14:39:26.224Z,1.93
2022-07-26T14:44:27.961Z,1.67
2022-07-26T14:49:29.723Z,2.27
2022-07-26T14:54:31.458Z,2.30
2022-07-26T14:59:33.416Z,2.33
2022-07-26T15:04:35.395Z,6.57
2022-07-26T15:09:37.117Z,2.60
2022-07-26T15:14:39.141Z,2.40
2022-07-26T15:19:40.890Z,2.00
2022-07-26T15:24:42.915Z,2.50
2022-07-26T15:29:46.779Z,2.23
2022-07-26T15:34:49.005Z,1.40
2022-07-26T15:39:51.932Z,1.87
2022-07-26T15:44:53.732Z,1.80
2022-07-26T15:49:56.024Z,2.17
2022-07-26T15:54:57.815Z,2.00
2022-07-26T16:00:05.190Z,1.47
2022-07-26T16:05:15.795Z,1.77
2022-07-26T16:10:17.833Z,2.13
2022-07-26T16:15:22.295Z,1.80
2022-07-26T16:20:24.103Z,2.20
2022-07-26T16:25:25.900Z,2.70
2022-07-26T16:30:27.623Z,2.17
2022-07-26T16:35:29.896Z,1.27
2022-07-26T16:40:31.616Z,1.57
2022-07-26T16:45:33.556Z,1.13
2022-07-26T16:50:35.356Z,1.67
2022-07-26T16:55:37.091Z,1.83
2022-07-26T17:00:41.842Z,1.47
2022-07-26T17:05:46.200Z,1.50
2022-07-26T17:10:47.987Z,1.50
2022-07-26T17:15:49.910Z,1.10
2022-07-26T17:20:52.018Z,1.00
2022-07-26T17:25:54.003Z,1.17
2022-07-26T17:30:55.951Z,1.17
2022-07-26T17:36:03.301Z,1.53
2022-07-26T17:41:06.344Z,2.20
2022-07-26T17:46:08.222Z,1.40
2022-07-26T17:51:10.393Z,1.40
2022-07-26T17:56:12.589Z,1.83
2022-07-26T18:01:14.424Z,2.10
2022-07-26T18:06:16.949Z,2.30
2022-07-26T18:11:18.996Z,1.97
2022-07-26T18:16:20.799Z,1.60
2022-07-26T18:21:22.639Z,1.67
2022-07-26T18:26:24.460Z,2.27
2022-07-26T18:31:26.457Z,1.47
2022-07-26T18:36:28.358Z,2.80
2022-07-26T18:41:30.441Z,1.80
2022-07-26T18:46:34.723Z,1.90
2022-07-26T18:51:36.696Z,1.90
2022-07-26T18:56:42.181Z,2.77
2022-07-26T19:01:44.061Z,2.33
2022-07-26T19:06:46.076Z,3.03
2022-07-26T19:11:51.116Z,1.83
2022-07-26T19:16:52.926Z,1.60
2022-07-26T19:21:54.954Z,1.47
2022-07-26T19:26:57.388Z,1.57
2022-07-26T19:32:00.187Z,2.77
2022-07-26T19:37:02.841Z,3.77
2022-07-26T19:42:04.859Z,2.43
2022-07-26T19:47:06.714Z,2.73
2022-07-26T19:52:11.693Z,2.80
2022-07-26T19:57:13.884Z,2.63
2022-07-26T20:02:16.630Z,1.73
2022-07-26T20:07:19.758Z,2.27
2022-07-26T20:12:21.795Z,2.00
2022-07-26T20:17:25.398Z,2.67
2022-07-26T20:22:27.529Z,2.70
2022-07-26T20:27:29.239Z,5.87
2022-07-26T20:32:30.975Z,2.17
2022-07-26T20:37:32.743Z,2.43
2022-07-26T20:42:34.502Z,2.03
2022-07-26T20:47:40.153Z,2.70
2022-07-26T20:52:42.102Z,1.50
2022-07-26T20:57:43.797Z,1.70
2022-07-26T21:02:45.777Z,1.70
2022-07-26T21:07:57.128Z,1.37
2022-07-26T21:13:01.505Z,1.40
2022-07-26T21:18:03.295Z,2.40
2022-07-26T21:23:16.900Z,1.23
2022-07-26T21:28:20.029Z,1.63
2022-07-26T21:33:24.990Z,2.37
2022-07-26T21:38:29.737Z,1.57
2022-07-26T21:43:31.494Z,1.20
2022-07-26T21:48:33.299Z,1.50
2022-07-26T21:53:35.177Z,1.60
2022-07-26T21:58:37.818Z,1.60
2022-07-26T22:03:41.147Z,1.70
2022-07-26T22:08:42.918Z,1.10
2022-07-26T22:13:44.906Z,1.53
2022-07-26T22:18:47.057Z,1.43
2022-07-26T22:23:48.782Z,1.90
2022-07-26T22:28:50.514Z,1.57
2022-07-26T22:33:52.282Z,1.40
2022-07-26T22:38:54.031Z,1.00
2022-07-26T22:43:55.858Z,1.77
2022-07-26T22:48:57.638Z,1.23
2022-07-26T22:53:59.665Z,0.80
2022-07-26T22:59:01.442Z,1.47
2022-07-26T23:04:03.231Z,1.30
2022-07-26T23:09:08.182Z,1.20
2022-07-26T23:14:11.314Z,0.87
2022-07-26T23:19:13.477Z,1.53
2022-07-26T23:24:15.482Z,1.33
2022-07-26T23:29:17.214Z,1.27
2022-07-26T23:34:18.949Z,1.07
2022-07-26T23:39:22.156Z,1.20
2022-07-26T23:44:23.863Z,1.10
2022-07-26T23:49:25.965Z,1.63
2022-07-26T23:54:27.844Z,1.10
2022-07-26T23:59:29.582Z,1.23
